Time;durP1;ratioP1;P1;durP2;ratioP2;P2;SDS_P1;SDS_P2;PMS_P1;PMS_P2;Temp;Humidity;BMP_temperature;BMP_pressure;BME280_temperature;BME280_humidity;BME280_pressure;Samples;Min_cycle;Max_cycle;Signal;HPM_P1;HPM_P2
2022/10/09 00:00:45;;;;;;;;;;;;;;;10.25;74.26;101975.75;5067475;28;20019;-67
2022/10/09 00:03:12;;;;;;;;;;;;;;;10.53;73.26;101983.63;5069573;28;19928;-67
2022/10/09 00:05:38;;;;;;;;;;;;;;;10.09;74.52;101984.94;5068733;28;19935;-67
2022/10/09 00:08:05;;;;;;;;;;;;;;;9.69;76.39;101982.63;5067046;28;19928;-67
2022/10/09 00:10:31;;;;;;;;;;;;;;;9.55;77.28;101988.25;5066267;28;19928;-67
2022/10/09 00:12:59;;;;;;;;;;;;;;;10.03;75.17;101987.75;5070422;28;19940;-67
2022/10/09 00:15:25;;;;;;;;;;;;;;;10.06;74.96;101987.66;5066763;28;19932;-67
2022/10/09 00:17:52;;;;;;;;;;;;;;;10.09;74.92;101990.19;5069029;28;19924;-67
2022/10/09 00:20:18;;;;;;;;;;;;;;;10.08;75.03;101986.72;5065162;28;19937;-66
2022/10/09 00:22:45;;;;;;;;;;;;;;;10.32;74.00;101993.00;5067369;28;19928;-66
2022/10/09 00:25:11;;;;;;;;;;;;;;;10.40;73.21;101995.41;5067928;28;19928;-66
2022/10/09 00:27:37;;;;;;;;;;;;;;;10.53;72.66;101994.13;5055691;28;20330;-66
2022/10/09 00:30:05;;;;;;;;;;;;;;;10.49;72.94;102001.22;5067761;28;19935;-66
2022/10/09 00:32:32;;;;;;;;;;;;;;;10.40;73.28;102006.75;5076525;28;19935;-67
2022/10/09 00:34:58;;;;;;;;;;;;;;;10.09;74.74;102001.53;5057251;28;19935;-67
2022/10/09 00:37:24;;;;;;;;;;;;;;;10.19;74.18;102003.03;5066549;28;19928;-67
2022/10/09 00:39:51;;;;;;;;;;;;;;;10.01;74.62;102015.78;5067797;28;20384;-67
2022/10/09 00:42:17;;;;;;;;;;;;;;;9.79;75.64;102008.50;5056680;28;19924;-67
2022/10/09 00:44:46;;;;;;;;;;;;;;;9.86;75.10;102003.13;5070981;28;19932;-67
2022/10/09 00:47:17;;;;;;;;;;;;;;;10.25;73.14;102004.59;5068083;28;20353;-67
2022/10/09 00:49:43;;;;;;;;;;;;;;;10.29;71.29;102000.97;5066134;28;19932;-66
2022/10/09 00:52:11;;;;;;;;;;;;;;;10.25;70.27;102001.97;5066394;28;19935;-66
2022/10/09 00:54:39;;;;;;;;;;;;;;;9.96;70.33;102001.94;5067104;28;19931;-67
2022/10/09 00:57:06;;;;;;;;;;;;;;;10.02;70.18;102004.38;5068289;28;19932;-66
2022/10/09 00:59:33;;;;;;;;;;;;;;;9.95;70.25;101994.97;5064496;28;20660;-67
2022/10/09 01:01:59;;;;;;;;;;;;;;;10.04;70.06;102007.81;5073684;28;19932;-67
2022/10/09 01:04:27;;;;;;;;;;;;;;;9.98;69.70;102006.22;5067628;28;19933;-67
2022/10/09 01:07:02;;;;;;;;;;;;;;;10.01;69.54;102014.03;5066479;28;20315;-67
2022/10/09 01:09:31;;;;;;;;;;;;;;;9.87;69.46;102005.69;5056998;28;19924;-67
2022/10/09 01:12:00;;;;;;;;;;;;;;;9.79;69.21;102015.53;5066726;28;19928;-66
2022/10/09 01:14:28;;;;;;;;;;;;;;;9.29;72.65;102022.13;5067042;28;19963;-66
2022/10/09 01:16:59;;;;;;;;;;;;;;;9.11;73.51;102017.38;5057441;28;19924;-66
2022/10/09 01:19:35;;;;;;;;;;;;;;;8.76;74.27;102024.31;5065804;28;19925;-67
2022/10/09 01:22:08;;;;;;;;;;;;;;;8.90;75.01;102024.00;5056992;28;19924;-67
2022/10/09 01:24:37;;;;;;;;;;;;;;;8.99;73.48;102028.13;5066373;28;20383;-67
2022/10/09 01:27:09;;;;;;;;;;;;;;;9.32;72.76;102029.91;5067159;28;20031;-67
2022/10/09 01:29:38;;;;;;;;;;;;;;;9.48;71.68;102033.84;5055862;28;19924;-66
2022/10/09 01:32:05;;;;;;;;;;;;;;;9.46;70.89;102030.38;5065829;28;19936;-66
2022/10/09 01:34:32;;;;;;;;;;;;;;;9.17;72.28;102035.53;5067345;28;19932;-66
2022/10/09 01:36:59;;;;;;;;;;;;;;;8.87;74.26;102034.53;5067360;28;19928;-66
2022/10/09 01:39:26;;;;;;;;;;;;;;;8.88;74.61;102040.63;5063277;28;19924;-66
2022/10/09 01:41:53;;;;;;;;;;;;;;;8.96;73.76;102043.91;5083495;28;19935;-66
2022/10/09 01:44:22;;;;;;;;;;;;;;;9.15;72.61;102038.19;5074778;28;20426;-66
2022/10/09 01:46:49;;;;;;;;;;;;;;;9.26;71.66;102043.16;5068651;28;20346;-66
2022/10/09 01:49:22;;;;;;;;;;;;;;;9.13;69.78;102039.09;5056962;28;19924;-66
2022/10/09 01:51:51;;;;;;;;;;;;;;;9.04;70.66;102039.34;5079084;28;19959;-66
2022/10/09 01:54:22;;;;;;;;;;;;;;;8.74;70.92;102033.97;5067550;28;20288;-66
2022/10/09 01:56:49;;;;;;;;;;;;;;;8.36;72.74;102033.09;5054981;28;19924;-66
2022/10/09 01:59:17;;;;;;;;;;;;;;;8.39;73.28;102030.44;5066834;28;19953;-66
2022/10/09 02:01:46;;;;;;;;;;;;;;;8.56;72.95;102033.53;5067740;28;19928;-67
2022/10/09 02:04:14;;;;;;;;;;;;;;;8.63;72.57;102035.97;5083712;28;19925;-67
2022/10/09 02:06:41;;;;;;;;;;;;;;;8.51;72.12;102038.84;5067660;28;19950;-67
2022/10/09 02:09:11;;;;;;;;;;;;;;;8.08;73.82;102040.66;5067816;28;19931;-66
2022/10/09 02:11:38;;;;;;;;;;;;;;;7.87;75.78;102038.47;5063022;28;19940;-66
2022/10/09 02:14:05;;;;;;;;;;;;;;;7.97;74.61;102042.63;5066901;28;20368;-66
2022/10/09 02:16:36;;;;;;;;;;;;;;;8.12;73.56;102037.09;5067671;28;19924;-66
2022/10/09 02:19:06;;;;;;;;;;;;;;;8.07;73.29;102029.34;5066754;28;19931;-66
2022/10/09 02:21:43;;;;;;;;;;;;;;;7.52;74.73;102040.00;5067107;28;19924;-66
2022/10/09 02:24:12;;;;;;;;;;;;;;;7.28;76.35;102035.22;5058425;28;19931;-66
2022/10/09 02:26:39;;;;;;;;;;;;;;;7.45;75.78;102043.63;5066893;28;19925;-66
2022/10/09 02:29:05;;;;;;;;;;;;;;;7.46;76.04;102044.50;5067633;28;19924;-66
2022/10/09 02:31:33;;;;;;;;;;;;;;;7.44;75.85;102044.50;5057686;28;19931;-66
2022/10/09 02:34:01;;;;;;;;;;;;;;;7.82;74.72;102042.03;5067464;28;19931;-66
2022/10/09 02:36:29;;;;;;;;;;;;;;;8.01;74.63;102047.75;5068334;28;19928;-66
2022/10/09 02:38:56;;;;;;;;;;;;;;;7.94;73.85;102037.47;5065083;28;19933;-66
2022/10/09 02:41:23;;;;;;;;;;;;;;;7.98;72.67;102039.97;5067012;28;20026;-66
2022/10/09 02:43:49;;;;;;;;;;;;;;;8.04;72.00;102041.59;5068424;28;19978;-65
2022/10/09 02:46:16;;;;;;;;;;;;;;;8.10;71.74;102033.63;5059933;28;19924;-65
2022/10/09 02:48:42;;;;;;;;;;;;;;;8.16;71.70;102039.59;5066525;28;19928;-65
2022/10/09 02:51:09;;;;;;;;;;;;;;;8.28;71.26;102041.06;5068038;28;19931;-65
2022/10/09 02:53:36;;;;;;;;;;;;;;;8.25;71.06;102044.63;5057482;28;19928;-66
2022/10/09 02:56:03;;;;;;;;;;;;;;;8.31;70.38;102038.47;5066698;28;19924;-66
2022/10/09 02:58:30;;;;;;;;;;;;;;;8.16;69.00;102039.59;5067878;28;20318;-66
2022/10/09 03:00:56;;;;;;;;;;;;;;;7.89;69.60;102036.69;5058112;28;19924;-66
2022/10/09 03:03:23;;;;;;;;;;;;;;;7.59;71.37;102046.84;5083997;28;20361;-66
2022/10/09 03:05:58;;;;;;;;;;;;;;;7.47;71.84;102040.97;5078777;28;19930;-66
2022/10/09 03:08:25;;;;;;;;;;;;;;;6.96;75.24;102042.72;5048411;28;19924;-66
2022/10/09 03:10:52;;;;;;;;;;;;;;;6.86;76.27;102049.84;5066959;28;19924;-66
2022/10/09 03:13:18;;;;;;;;;;;;;;;7.11;75.43;102052.91;5057358;28;20399;-66
2022/10/09 03:15:45;;;;;;;;;;;;;;;7.33;74.80;102049.03;5066770;28;19928;-66
2022/10/09 03:18:11;;;;;;;;;;;;;;;7.54;74.17;102056.47;5066806;28;19928;-66
2022/10/09 03:20:37;;;;;;;;;;;;;;;7.38;74.13;102054.19;5058824;28;19953;-66
2022/10/09 03:23:04;;;;;;;;;;;;;;;7.37;74.34;102063.75;5067699;28;20372;-66
2022/10/09 03:25:30;;;;;;;;;;;;;;;7.54;72.93;102053.88;5066374;28;19931;-66
2022/10/09 03:27:57;;;;;;;;;;;;;;;7.63;72.31;102069.38;5067708;28;19928;-67
2022/10/09 03:30:24;;;;;;;;;;;;;;;7.62;72.14;102067.66;5066455;28;19929;-67
2022/10/09 03:32:50;;;;;;;;;;;;;;;7.50;72.30;102072.25;5069581;28;19932;-67
2022/10/09 03:35:16;;;;;;;;;;;;;;;7.21;72.58;102070.13;5070904;28;19924;-66
2022/10/09 03:37:43;;;;;;;;;;;;;;;6.84;75.04;102075.06;5060769;28;19927;-66
2022/10/09 03:40:10;;;;;;;;;;;;;;;7.02;75.20;102076.53;5069736;28;20387;-67
2022/10/09 03:42:36;;;;;;;;;;;;;;;6.88;74.65;102073.25;5070981;28;19924;-67
2022/10/09 03:45:05;;;;;;;;;;;;;;;6.75;75.67;102070.88;5059848;28;19924;-67
2022/10/09 03:47:31;;;;;;;;;;;;;;;6.77;75.42;102076.91;5069735;28;19924;-67
2022/10/09 03:49:57;;;;;;;;;;;;;;;6.88;74.38;102074.13;5070554;28;19947;-67
2022/10/09 03:52:24;;;;;;;;;;;;;;;7.05;73.51;102079.09;5060998;28;19932;-67
2022/10/09 03:54:50;;;;;;;;;;;;;;;7.15;72.88;102078.94;5070613;28;19924;-67
2022/10/09 03:57:16;;;;;;;;;;;;;;;6.72;74.33;102081.34;5071230;28;19924;-67
2022/10/09 03:59:43;;;;;;;;;;;;;;;6.12;78.77;102083.00;5059645;28;19939;-67
2022/10/09 04:02:10;;;;;;;;;;;;;;;6.47;78.03;102079.09;5069814;28;19924;-67
2022/10/09 04:04:36;;;;;;;;;;;;;;;6.10;80.42;102082.16;5069744;28;19932;-67
2022/10/09 04:07:03;;;;;;;;;;;;;;;6.20;80.09;102083.78;5060148;28;19924;-67
2022/10/09 04:09:29;;;;;;;;;;;;;;;6.57;77.70;102067.66;5069115;28;20445;-67
2022/10/09 04:11:55;;;;;;;;;;;;;;;6.98;75.80;102083.56;5069881;28;19924;-68
2022/10/09 04:14:22;;;;;;;;;;;;;;;7.21;74.80;102081.41;5059874;28;20406;-68
2022/10/09 04:16:48;;;;;;;;;;;;;;;7.17;74.55;102090.19;5069387;28;19931;-67
2022/10/09 04:19:15;;;;;;;;;;;;;;;6.91;74.18;102091.50;5070011;28;19927;-68
2022/10/09 04:21:42;;;;;;;;;;;;;;;6.60;74.92;102086.72;5059686;28;20402;-67
2022/10/09 04:24:08;;;;;;;;;;;;;;;6.59;76.41;102092.81;5080015;28;19931;-67
2022/10/09 04:26:34;;;;;;;;;;;;;;;6.82;77.03;102087.28;5072414;28;19932;-67
2022/10/09 04:29:01;;;;;;;;;;;;;;;6.92;76.34;102098.41;5062823;28;20520;-67
2022/10/09 04:31:27;;;;;;;;;;;;;;;7.00;73.75;102100.03;5070789;28;20399;-67
2022/10/09 04:33:54;;;;;;;;;;;;;;;6.77;75.19;102089.94;5070128;28;19932;-67
2022/10/09 04:36:22;;;;;;;;;;;;;;;6.85;75.40;102098.50;5038954;28;20300;-67
2022/10/09 04:38:48;;;;;;;;;;;;;;;7.15;76.29;102091.97;5049770;28;19931;-67
2022/10/09 04:41:14;;;;;;;;;;;;;;;7.47;76.63;102091.41;5048995;28;19936;-67
2022/10/09 04:43:41;;;;;;;;;;;;;;;7.64;76.40;102091.13;5042853;28;20366;-67
2022/10/09 04:46:08;;;;;;;;;;;;;;;7.69;76.82;102089.28;5069800;28;19931;-67
2022/10/09 04:48:37;;;;;;;;;;;;;;;7.71;77.30;102087.53;5069221;28;19924;-67
2022/10/09 04:51:03;;;;;;;;;;;;;;;7.66;77.97;102089.34;5075390;28;19924;-67
2022/10/09 04:53:31;;;;;;;;;;;;;;;7.50;78.48;102093.13;5084349;28;20019;-67
2022/10/09 04:55:58;;;;;;;;;;;;;;;6.91;82.04;102083.69;5068766;28;20415;-66
2022/10/09 04:58:24;;;;;;;;;;;;;;;6.96;82.50;102089.66;5059193;28;19931;-65
2022/10/09 05:00:50;;;;;;;;;;;;;;;7.13;81.52;102085.06;5069282;28;20399;-65
2022/10/09 05:03:16;;;;;;;;;;;;;;;7.31;80.78;102084.75;5096976;28;19928;-65
2022/10/09 05:05:43;;;;;;;;;;;;;;;7.37;80.78;102096.81;5106814;28;19928;-65
2022/10/09 05:08:09;;;;;;;;;;;;;;;7.40;80.58;102096.75;5089997;28;19930;-65
2022/10/09 05:10:37;;;;;;;;;;;;;;;7.15;81.48;102098.94;5085674;28;19924;-66
2022/10/09 05:13:03;;;;;;;;;;;;;;;7.33;81.37;102106.44;5089692;28;20339;-66
2022/10/09 05:15:30;;;;;;;;;;;;;;;7.58;80.21;102101.66;5095578;28;19924;-66
2022/10/09 05:17:56;;;;;;;;;;;;;;;7.71;79.51;102106.66;5095727;28;19927;-67
2022/10/09 05:20:22;;;;;;;;;;;;;;;7.37;81.00;102112.47;5090619;28;19924;-66
2022/10/09 05:22:49;;;;;;;;;;;;;;;7.47;80.75;102109.69;5090903;28;19924;-66
2022/10/09 05:25:15;;;;;;;;;;;;;;;7.41;80.47;102112.41;5089310;28;19928;-67
2022/10/09 05:27:43;;;;;;;;;;;;;;;7.29;81.13;102117.81;5085006;28;19931;-67
2022/10/09 05:30:10;;;;;;;;;;;;;;;6.92;83.15;102116.66;5099469;28;20399;-67
2022/10/09 05:32:36;;;;;;;;;;;;;;;7.00;83.03;102112.19;5086353;28;19924;-67
2022/10/09 05:35:03;;;;;;;;;;;;;;;7.04;82.38;102113.88;5090346;28;19946;-67
2022/10/09 05:37:29;;;;;;;;;;;;;;;7.24;81.45;102114.44;5083805;28;19930;-67
2022/10/09 05:39:55;;;;;;;;;;;;;;;7.63;79.20;102118.97;5106043;28;19932;-67
2022/10/09 05:42:21;;;;;;;;;;;;;;;7.66;78.94;102121.53;5089677;28;19924;-67
2022/10/09 05:44:49;;;;;;;;;;;;;;;7.68;79.12;102118.91;5092492;28;20327;-67
2022/10/09 05:47:16;;;;;;;;;;;;;;;8.00;77.93;102115.69;5086622;28;19924;-67
2022/10/09 05:49:43;;;;;;;;;;;;;;;8.04;77.67;102123.44;5103087;28;20333;-66
2022/10/09 05:52:09;;;;;;;;;;;;;;;8.25;77.06;102122.16;5107217;28;19939;-66
2022/10/09 05:54:35;;;;;;;;;;;;;;;8.26;76.91;102122.13;5103437;28;20525;-67
2022/10/09 05:57:03;;;;;;;;;;;;;;;8.11;77.22;102122.44;5099552;28;19931;-67
2022/10/09 05:59:29;;;;;;;;;;;;;;;8.81;75.53;102118.38;5089685;28;19977;-67
2022/10/09 06:01:57;;;;;;;;;;;;;;;9.20;72.96;102127.91;5086644;28;19938;-67
2022/10/09 06:04:24;;;;;;;;;;;;;;;9.21;71.78;102120.91;5094172;28;19974;-67
2022/10/09 06:06:50;;;;;;;;;;;;;;;9.08;71.90;102119.50;5082272;28;19931;-67
2022/10/09 06:09:18;;;;;;;;;;;;;;;9.08;71.10;102125.59;5086795;28;19950;-67
2022/10/09 06:11:44;;;;;;;;;;;;;;;8.83;71.92;102123.56;5088428;28;19924;-66
2022/10/09 06:14:12;;;;;;;;;;;;;;;8.74;72.93;102132.47;5069761;28;20620;-66
2022/10/09 06:16:39;;;;;;;;;;;;;;;8.82;73.13;102124.47;5072759;28;20371;-66
2022/10/09 06:19:07;;;;;;;;;;;;;;;9.05;72.65;102130.91;5084619;28;19932;-66
2022/10/09 06:21:34;;;;;;;;;;;;;;;9.06;72.26;102135.22;5079293;28;19940;-66
2022/10/09 06:24:01;;;;;;;;;;;;;;;8.81;73.23;102141.91;5087097;28;19924;-66
2022/10/09 06:26:28;;;;;;;;;;;;;;;9.11;73.19;102135.13;5088541;28;20371;-66
2022/10/09 06:28:55;;;;;;;;;;;;;;;9.55;71.42;102136.66;5066028;28;19933;-66
2022/10/09 06:31:22;;;;;;;;;;;;;;;9.93;71.03;102140.91;5076588;28;19936;-67
2022/10/09 06:33:50;;;;;;;;;;;;;;;10.03;69.80;102148.47;5059238;28;19931;-67
2022/10/09 06:36:18;;;;;;;;;;;;;;;10.30;71.87;102152.13;5077962;28;19939;-67
2022/10/09 06:38:45;;;;;;;;;;;;;;;10.66;70.08;102151.06;5086406;28;19928;-67
2022/10/09 06:41:12;;;;;;;;;;;;;;;10.97;68.83;102148.38;5083278;28;19927;-67
2022/10/09 06:43:38;;;;;;;;;;;;;;;10.90;69.63;102153.88;5084443;28;19928;-67
2022/10/09 06:46:06;;;;;;;;;;;;;;;10.99;68.60;102158.81;5067229;28;19931;-67
2022/10/09 06:48:33;;;;;;;;;;;;;;;11.58;68.26;102160.38;5076744;28;19928;-67
2022/10/09 06:51:00;;;;;;;;;;;;;;;12.20;65.67;102162.63;5087926;28;19936;-67
2022/10/09 06:53:28;;;;;;;;;;;;;;;12.69;65.65;102166.97;5084877;28;20398;-67
2022/10/09 06:55:55;;;;;;;;;;;;;;;12.78;64.62;102164.00;5078888;28;19924;-67
2022/10/09 06:58:21;;;;;;;;;;;;;;;13.07;63.54;102157.59;5074993;28;19939;-68
2022/10/09 07:00:47;;;;;;;;;;;;;;;12.44;65.83;102168.81;5076392;28;20410;-68
2022/10/09 07:03:14;;;;;;;;;;;;;;;13.04;63.46;102168.25;5086388;28;19928;-68
2022/10/09 07:05:40;;;;;;;;;;;;;;;13.49;62.37;102171.69;5088872;28;19932;-68
2022/10/09 07:08:07;;;;;;;;;;;;;;;14.00;62.27;102167.78;5088966;28;20291;-68
2022/10/09 07:10:34;;;;;;;;;;;;;;;14.79;58.67;102161.59;5090081;28;19924;-68
2022/10/09 07:13:00;;;;;;;;;;;;;;;14.90;56.85;102164.59;5089543;28;19936;-68
2022/10/09 07:15:27;;;;;;;;;;;;;;;14.68;59.23;102174.44;5092181;28;19931;-68
2022/10/09 07:17:53;;;;;;;;;;;;;;;14.58;59.62;102166.09;5089943;28;20587;-68
2022/10/09 07:20:19;;;;;;;;;;;;;;;14.63;58.30;102171.16;5103219;28;19924;-69
2022/10/09 07:22:46;;;;;;;;;;;;;;;14.52;59.61;102167.22;5090539;28;19924;-68
2022/10/09 07:25:12;;;;;;;;;;;;;;;15.36;57.26;102173.81;5102966;28;19928;-68
2022/10/09 07:27:40;;;;;;;;;;;;;;;15.58;56.26;102178.00;5088313;28;20291;-68
2022/10/09 07:30:07;;;;;;;;;;;;;;;15.22;57.51;102177.13;5089280;28;19935;-68
2022/10/09 07:32:33;;;;;;;;;;;;;;;14.68;59.48;102180.56;5094172;28;20117;-68
2022/10/09 07:34:59;;;;;;;;;;;;;;;15.27;58.97;102177.75;5107116;28;19934;-69
2022/10/09 07:37:25;;;;;;;;;;;;;;;15.00;59.45;102177.28;5108817;28;20340;-68
2022/10/09 07:39:52;;;;;;;;;;;;;;;14.61;60.22;102185.28;5109072;28;19927;-68
2022/10/09 07:42:18;;;;;;;;;;;;;;;15.42;58.19;102184.94;5100487;28;19935;-68
2022/10/09 07:44:46;;;;;;;;;;;;;;;15.25;59.01;102182.28;5087468;28;20390;-68
2022/10/09 07:47:12;;;;;;;;;;;;;;;14.90;57.64;102181.28;5090345;28;19924;-68
2022/10/09 07:49:38;;;;;;;;;;;;;;;15.18;58.34;102178.22;5088675;28;20300;-68
2022/10/09 07:52:04;;;;;;;;;;;;;;;16.14;56.49;102179.56;5089597;28;19932;-68
2022/10/09 07:54:31;;;;;;;;;;;;;;;15.71;57.10;102185.31;5092386;28;19924;-69
2022/10/09 07:56:57;;;;;;;;;;;;;;;15.77;57.48;102190.31;5094384;28;19924;-68
2022/10/09 07:59:23;;;;;;;;;;;;;;;16.60;55.22;102187.72;5088091;28;20265;-68
2022/10/09 08:01:51;;;;;;;;;;;;;;;15.75;57.41;102189.50;5087880;28;19936;-68
2022/10/09 08:04:17;;;;;;;;;;;;;;;16.54;56.02;102199.47;5096277;28;19924;-68
2022/10/09 08:06:43;;;;;;;;;;;;;;;17.12;52.96;102191.00;5096194;28;19930;-68
2022/10/09 08:09:10;;;;;;;;;;;;;;;17.35;53.42;102180.84;5108552;28;19933;-68
2022/10/09 08:11:39;;;;;;;;;;;;;;;17.66;54.44;102185.28;5091037;28;20475;-68
2022/10/09 08:14:05;;;;;;;;;;;;;;;17.88;52.55;102192.81;5087316;28;19931;-68
2022/10/09 08:16:32;;;;;;;;;;;;;;;18.71;49.09;102189.50;5084834;28;19955;-68
2022/10/09 08:19:00;;;;;;;;;;;;;;;19.06;49.52;102190.78;5063546;28;19930;-68
2022/10/09 08:21:27;;;;;;;;;;;;;;;18.73;50.43;102192.91;5080382;28;19931;-68
2022/10/09 08:23:54;;;;;;;;;;;;;;;19.27;48.94;102189.38;5059233;28;19970;-68
2022/10/09 08:26:21;;;;;;;;;;;;;;;19.84;47.55;102195.31;5067423;28;20057;-68
2022/10/09 08:28:49;;;;;;;;;;;;;;;19.99;47.51;102200.59;5080416;28;19928;-68
2022/10/09 08:31:16;;;;;;;;;;;;;;;20.54;45.56;102200.31;5079666;28;19924;-68
2022/10/09 08:33:43;;;;;;;;;;;;;;;20.45;46.88;102201.81;5064670;28;19928;-68
2022/10/09 08:36:13;;;;;;;;;;;;;;;20.72;46.94;102196.34;5069595;28;20356;-69
2022/10/09 08:38:39;;;;;;;;;;;;;;;20.63;45.07;102200.50;5062541;28;20023;-69
2022/10/09 08:41:08;;;;;;;;;;;;;;;20.45;45.49;102204.47;5059344;28;19928;-68
2022/10/09 08:43:44;;;;;;;;;;;;;;;19.82;46.31;102204.38;5065674;28;19924;-69
2022/10/09 08:46:15;;;;;;;;;;;;;;;20.32;46.59;102211.63;5064926;28;20086;-68
2022/10/09 08:48:44;;;;;;;;;;;;;;;20.96;45.59;102207.91;5077985;28;20233;-68
2022/10/09 08:51:15;;;;;;;;;;;;;;;20.97;45.07;102204.28;5088948;28;20441;-68
2022/10/09 08:53:44;;;;;;;;;;;;;;;20.00;46.41;102205.78;5067856;28;19923;-68
2022/10/09 08:56:13;;;;;;;;;;;;;;;20.80;45.45;102200.16;5081194;28;19947;-68
2022/10/09 08:58:40;;;;;;;;;;;;;;;20.71;46.47;102195.50;5073324;28;20398;-68
2022/10/09 09:01:11;;;;;;;;;;;;;;;20.71;45.64;102208.81;5074339;28;19947;-68
2022/10/09 09:03:45;;;;;;;;;;;;;;;20.75;46.99;102199.66;5068083;28;19924;-68
2022/10/09 09:06:17;;;;;;;;;;;;;;;20.96;44.63;102205.25;5058360;28;19947;-68
2022/10/09 09:08:48;;;;;;;;;;;;;;;21.65;43.61;102203.72;5068418;28;19955;-68
2022/10/09 09:11:19;;;;;;;;;;;;;;;22.28;42.54;102200.66;5052896;28;19932;-69
2022/10/09 09:13:49;;;;;;;;;;;;;;;21.87;43.70;102194.94;5074520;28;19924;-69
2022/10/09 09:16:19;;;;;;;;;;;;;;;20.82;44.12;102202.72;5069562;28;20140;-69
2022/10/09 09:18:53;;;;;;;;;;;;;;;21.35;47.39;102198.88;5058767;28;20311;-69
2022/10/09 09:21:30;;;;;;;;;;;;;;;21.10;43.38;102194.41;5068624;28;19952;-69
2022/10/09 09:23:58;;;;;;;;;;;;;;;21.91;42.75;102197.31;5066015;28;20383;-69
2022/10/09 09:26:26;;;;;;;;;;;;;;;21.88;43.21;102196.66;5070410;28;19928;-69
2022/10/09 09:28:56;;;;;;;;;;;;;;;21.83;43.43;102192.53;5073835;28;20338;-69
2022/10/09 09:31:24;;;;;;;;;;;;;;;21.35;45.20;102185.53;5048624;28;19924;-69
2022/10/09 09:33:53;;;;;;;;;;;;;;;21.85;43.38;102195.91;5074312;28;19924;-69
2022/10/09 09:36:22;;;;;;;;;;;;;;;20.55;45.45;102189.53;5084056;28;19963;-68
2022/10/09 09:38:50;;;;;;;;;;;;;;;19.45;47.29;102190.00;5058155;28;19924;-68
2022/10/09 09:41:17;;;;;;;;;;;;;;;19.70;49.23;102189.22;5069412;28;20407;-68
2022/10/09 09:43:43;;;;;;;;;;;;;;;19.80;47.49;102177.88;5084831;28;19932;-68
2022/10/09 09:46:13;;;;;;;;;;;;;;;21.05;46.02;102167.25;5058894;28;20384;-67
2022/10/09 09:48:41;;;;;;;;;;;;;;;21.45;45.42;102175.84;5067653;28;19935;-68
2022/10/09 09:51:12;;;;;;;;;;;;;;;20.46;46.27;102179.53;5068858;28;19931;-68
2022/10/09 09:53:41;;;;;;;;;;;;;;;21.26;44.24;102168.38;5058274;28;19924;-68
2022/10/09 09:56:09;;;;;;;;;;;;;;;20.85;46.36;102176.69;5076381;28;20291;-69
2022/10/09 09:58:38;;;;;;;;;;;;;;;19.84;46.27;102167.88;5063532;28;21222;-68
2022/10/09 10:01:06;;;;;;;;;;;;;;;19.37;48.65;102169.19;5068302;28;19931;-68
2022/10/09 10:03:33;;;;;;;;;;;;;;;18.96;50.04;102163.06;5068340;28;20031;-68
2022/10/09 10:05:59;;;;;;;;;;;;;;;19.16;47.82;102159.13;5058439;28;19943;-69
2022/10/09 10:08:27;;;;;;;;;;;;;;;20.35;46.23;102158.13;5074077;28;19932;-68
2022/10/09 10:10:54;;;;;;;;;;;;;;;20.43;47.31;102152.25;5066315;28;19946;-68
2022/10/09 10:13:26;;;;;;;;;;;;;;;20.20;46.37;102146.69;5056889;28;19928;-68
2022/10/09 10:15:54;;;;;;;;;;;;;;;19.33;47.49;102151.72;5066064;28;19924;-68
2022/10/09 10:18:22;;;;;;;;;;;;;;;19.21;50.57;102152.56;5067401;28;19936;-68
2022/10/09 10:20:49;;;;;;;;;;;;;;;20.18;46.36;102142.41;5057211;28;19924;-68
2022/10/09 10:23:22;;;;;;;;;;;;;;;19.90;45.74;102135.50;5066035;28;20363;-69
2022/10/09 10:25:50;;;;;;;;;;;;;;;20.10;46.33;102136.81;5069392;28;19959;-69
2022/10/09 10:28:18;;;;;;;;;;;;;;;19.69;45.75;102134.31;5064425;28;19924;-68
2022/10/09 10:30:47;;;;;;;;;;;;;;;20.05;46.93;102133.59;5066547;28;19977;-68
2022/10/09 10:33:17;;;;;;;;;;;;;;;20.05;45.54;102134.44;5067311;28;19924;-69
2022/10/09 10:35:43;;;;;;;;;;;;;;;19.10;48.17;102131.13;5067125;28;20537;-69
2022/10/09 10:38:12;;;;;;;;;;;;;;;19.61;46.23;102136.63;5068061;28;20533;-69
2022/10/09 10:40:43;;;;;;;;;;;;;;;19.98;46.41;102134.97;5058613;28;19970;-69
2022/10/09 10:43:24;;;;;;;;;;;;;;;19.85;44.03;102122.50;5071757;28;19968;-69
2022/10/09 10:45:58;;;;;;;;;;;;;;;20.28;46.65;102128.41;5064054;28;19981;-69
2022/10/09 10:48:27;;;;;;;;;;;;;;;19.74;46.43;102118.88;5073336;28;19924;-68
2022/10/09 10:50:58;;;;;;;;;;;;;;;19.36;45.60;102124.94;5062309;28;20398;-68
2022/10/09 10:53:28;;;;;;;;;;;;;;;18.79;47.00;102108.34;5060791;28;19931;-68
2022/10/09 10:55:56;;;;;;;;;;;;;;;18.90;48.17;102107.66;5070171;28;19924;-69
2022/10/09 10:58:25;;;;;;;;;;;;;;;18.93;49.41;102102.97;5083911;28;19927;-69
2022/10/09 11:01:02;;;;;;;;;;;;;;;19.54;46.70;102101.63;5075225;28;19935;-68
2022/10/09 11:03:33;;;;;;;;;;;;;;;19.21;45.85;102106.50;5071234;28;19931;-69
2022/10/09 11:06:03;;;;;;;;;;;;;;;18.55;47.20;102101.94;5061493;28;19959;-69
2022/10/09 11:08:43;;;;;;;;;;;;;;;18.84;47.71;102098.28;5070594;28;19931;-69
2022/10/09 11:11:13;;;;;;;;;;;;;;;19.06;48.02;102102.19;5060018;28;19924;-69
2022/10/09 11:13:44;;;;;;;;;;;;;;;18.23;49.54;102085.34;5070427;28;20276;-67
2022/10/09 11:16:23;;;;;;;;;;;;;;;19.33;47.19;102077.25;5071667;28;19927;-68
2022/10/09 11:18:59;;;;;;;;;;;;;;;18.18;48.47;102086.59;5071685;28;19924;-69
2022/10/09 11:21:33;;;;;;;;;;;;;;;18.42;48.08;102074.41;5071053;28;19924;-68
2022/10/09 11:24:11;;;;;;;;;;;;;;;17.85;48.51;102081.53;5079069;28;19937;-69
2022/10/09 11:26:42;;;;;;;;;;;;;;;18.29;48.77;102063.69;5065517;28;19932;-68
2022/10/09 11:29:12;;;;;;;;;;;;;;;18.33;46.87;102065.22;5060333;28;19923;-68
2022/10/09 11:31:43;;;;;;;;;;;;;;;17.83;48.57;102067.50;5070987;28;19931;-68
2022/10/09 11:34:12;;;;;;;;;;;;;;;17.93;47.42;102069.50;5071292;28;20269;-68
2022/10/09 11:36:40;;;;;;;;;;;;;;;17.68;49.03;102073.75;5077007;28;19928;-69
2022/10/09 11:39:11;;;;;;;;;;;;;;;18.41;48.39;102048.78;5067171;28;20007;-68
2022/10/09 11:41:37;;;;;;;;;;;;;;;18.33;49.92;102038.66;5058886;28;19924;-68
2022/10/09 11:44:13;;;;;;;;;;;;;;;17.72;50.51;102054.03;5064833;28;20391;-70
2022/10/09 11:46:44;;;;;;;;;;;;;;;17.63;50.36;102047.50;5059158;28;19932;-69
2022/10/09 11:49:17;;;;;;;;;;;;;;;18.65;48.57;102044.63;5060577;28;20071;-69
2022/10/09 11:51:47;;;;;;;;;;;;;;;19.54;44.97;102039.56;5069164;28;19947;-69
2022/10/09 11:54:16;;;;;;;;;;;;;;;19.69;45.20;102035.84;5063534;28;19924;-69
2022/10/09 11:56:52;;;;;;;;;;;;;;;20.48;43.20;102020.41;5070799;28;19931;-68
2022/10/09 11:59:21;;;;;;;;;;;;;;;19.38;46.47;102027.28;5065318;28;19924;-69
2022/10/09 12:01:49;;;;;;;;;;;;;;;18.61;44.38;102024.50;5064779;28;21428;-69
2022/10/09 12:04:21;;;;;;;;;;;;;;;19.12;42.90;102020.22;5071166;28;19924;-68
2022/10/09 12:06:49;;;;;;;;;;;;;;;18.58;44.19;102010.56;5055839;28;19928;-69
2022/10/09 12:09:19;;;;;;;;;;;;;;;19.01;45.47;102013.91;5071145;28;19931;-68
2022/10/09 12:11:54;;;;;;;;;;;;;;;18.47;44.71;102011.25;5070135;28;19924;-69
2022/10/09 12:14:24;;;;;;;;;;;;;;;18.51;47.71;102010.13;5063963;28;19931;-68
2022/10/09 12:16:51;;;;;;;;;;;;;;;18.69;46.55;102008.06;5061192;28;19924;-68
2022/10/09 12:19:19;;;;;;;;;;;;;;;18.36;45.97;102000.47;5070419;28;19924;-68
2022/10/09 12:21:48;;;;;;;;;;;;;;;17.97;45.29;102003.81;5078512;28;20530;-69
2022/10/09 12:24:17;;;;;;;;;;;;;;;18.25;45.90;101993.19;5090424;28;19930;-68
2022/10/09 12:26:43;;;;;;;;;;;;;;;18.29;46.96;102002.63;5074208;28;19931;-69
2022/10/09 12:29:16;;;;;;;;;;;;;;;18.66;44.82;101995.00;5073072;28;20337;-68
2022/10/09 12:31:42;;;;;;;;;;;;;;;18.21;45.40;101991.69;5070449;28;19932;-68
2022/10/09 12:34:15;;;;;;;;;;;;;;;18.89;46.03;101989.00;5067194;28;19931;-69
2022/10/09 12:36:42;;;;;;;;;;;;;;;18.77;43.70;101979.19;5069493;28;20022;-69
2022/10/09 12:39:15;;;;;;;;;;;;;;;18.16;43.57;101974.31;5070431;28;19932;-69
2022/10/09 12:41:44;;;;;;;;;;;;;;;18.51;43.51;101983.56;5059865;28;19928;-68
2022/10/09 12:44:17;;;;;;;;;;;;;;;18.60;42.40;101972.31;5070073;28;19935;-68